Pagrindinis puslapis
METAR-TAF:

METAR-TAF

Oro uostai :

Irkutskas, Rusija

platuma: 52-16N, ilguma: 104-19E, Aukštis: 513 m

Dabartinis oras

Ataskaita buvo paskelbta 29 minutes, ne 20:00 UTC
Vėjas 4 kt iš Rytų
Temperatūra 3°C
Drėgmė 70%
Slėgis 1004 hPa
Matomumas 10 km arba daugiau
nėra debesų žemiau 1500 m ir nėra kamuolinių lietaus debesų

METAR: UIII 302000Z 09002MPS CAVOK 03/M02 Q1004 R12/CLRD60 NOSIG RMK QFE711/0948

Laikas: 04:29 (20:29 UTC)

Prognozė

Ataskaita buvo paskelbta 3 valandos ir 29 minutes, ne 17:00 UTC
Prognozė galioja nuo 30 metu 18 UTC su 31 metu 18 UTC
Vėjas 6 kt iš Pietų/Pietryčių
Matomumas 10 km arba daugiau
nėra debesų žemiau 1500 m ir nėra kamuolinių lietaus debesų

TAF: UIII 301700Z 3018/3118 15003MPS CAVOK

Orai ataskaitas ir orų prognozės (METAR, TAF).

turimą stotys yra geltonos ir raudonos taškus žemėlapyje.

Perkelti pele per norėdami pamatyti stoties vardą.

Tada spustelėkite, norėdami matyti oro stebėjimo ir prognozės.

Norėdami pakeisti žemėlapį: spustelėkite ant žalios mygtukų su juodo kryžiaus žemyn,; žalią mygtuką su brūkšneliu, jei norite nutolinti; arba žalių rodyklių gretimoms žemėlapius.


METAR-TAF: